^^
Saratoga-Weather Station Historical Data
Daily Summary for May 18, 2020 Units:  English    Metric   Both
Daily Weekly Monthly Yearly Custom
  High: Low: Average:
Temperature: 45.3 °F 40.5 °F 42.4 °F
Dew Point: 42.1 °F 38.8 °F 40.5 °F
Humidity: 95% 88% 92%
Wind Speed: 0.9mph 0mph 0mph
Wind Gust: 1mph - -
Wind- - West
Pressure: 30.2 in 30.2 in -
Precipitation: 0 in    
Historical Graphs
 
 
Tabular Data for May 18, 2020
Time Temperature Dew Point Pressure Wind Wind Speed Wind Gust Humidity Rainfall Rate (Hourly) solar
00:03 45.3 °F 41.9 °F 30.2 in Calm     88% 0 in 0 W/m2
00:08 45.1 °F 42.1 °F 30.2 in Calm   1 mph 89% 0 in 0 W/m2
00:13 45 °F 41.9 °F 30.2 in Calm     89% 0 in 0 W/m2
00:19 44.8 °F 41.7 °F 30.2 in Calm   1 mph 89% 0 in 0 W/m2
00:24 44.6 °F 41.5 °F 30.2 in West 0.9 mph 1 mph 89% 0 in 0 W/m2
00:29 44.6 °F 41.5 °F 30.2 in Calm     89% 0 in 0 W/m2
00:34 44.4 °F 41.4 °F 30.2 in Calm     89% 0 in 0 W/m2
00:39 44.4 °F 41.7 °F 30.2 in Calm     90% 0 in 0 W/m2
00:44 44.2 °F 41.5 °F 30.2 in Calm     90% 0 in 0 W/m2
00:49 44.2 °F 41.5 °F 30.2 in Calm     90% 0 in 0 W/m2
00:54 44.2 °F 41.5 °F 30.2 in Calm     90% 0 in 0 W/m2
00:59 44.2 °F 41.5 °F 30.2 in Calm     90% 0 in 0 W/m2
01:04 44.1 °F 41.5 °F 30.2 in Calm     91% 0 in 0 W/m2
01:09 44.1 °F 41.5 °F 30.2 in Calm     91% 0 in 0 W/m2
01:14 44.1 °F 41.5 °F 30.2 in Calm     91% 0 in 0 W/m2
01:19 43.9 °F 41.4 °F 30.2 in Calm     91% 0 in 0 W/m2
01:24 43.7 °F 41.2 °F 30.2 in Calm     91% 0 in 0 W/m2
01:29 43.5 °F 41 °F 30.2 in Calm     91% 0 in 0 W/m2
01:34 43.5 °F 41 °F 30.2 in Calm     91% 0 in 0 W/m2
01:39 43.3 °F 40.8 °F 30.2 in Calm     91% 0 in 0 W/m2
01:44 43.3 °F 40.8 °F 30.2 in Calm     91% 0 in 0 W/m2
01:49 43.2 °F 40.6 °F 30.2 in Calm     91% 0 in 0 W/m2
01:54 43 °F 40.5 °F 30.2 in Calm     91% 0 in 0 W/m2
01:59 43 °F 40.8 °F 30.2 in Calm     92% 0 in 0 W/m2
02:04 42.8 °F 40.6 °F 30.2 in Calm     92% 0 in 0 W/m2
02:09 42.6 °F 40.5 °F 30.2 in Calm     92% 0 in 0 W/m2
02:14 42.4 °F 40.3 °F 30.2 in Calm     92% 0 in 0 W/m2
02:19 42.3 °F 40.1 °F 30.2 in Calm     92% 0 in 0 W/m2
02:24 42.3 °F 40.5 °F 30.2 in Calm     93% 0 in 0 W/m2
02:29 42.3 °F 40.5 °F 30.2 in Calm     93% 0 in 0 W/m2
02:34 42.3 °F 40.5 °F 30.2 in Calm     93% 0 in 0 W/m2
02:39 42.3 °F 40.5 °F 30.2 in Calm     93% 0 in 0 W/m2
02:44 42.1 °F 40.3 °F 30.2 in Calm     93% 0 in 0 W/m2
02:49 42.1 °F 40.3 °F 30.2 in Calm     93% 0 in 0 W/m2
02:54 42.1 °F 40.3 °F 30.2 in Calm     93% 0 in 0 W/m2
02:59 42.1 °F 40.3 °F 30.2 in Calm     93% 0 in 0 W/m2
03:04 42.1 °F 40.3 °F 30.2 in Calm     93% 0 in 0 W/m2
03:09 41.9 °F 40.1 °F 30.2 in Calm     93% 0 in 0 W/m2
03:14 41.7 °F 39.9 °F 30.2 in Calm     93% 0 in 0 W/m2
03:19 41.7 °F 39.9 °F 30.2 in Calm     93% 0 in 0 W/m2
03:24 41.5 °F 39.7 °F 30.2 in Calm     93% 0 in 0 W/m2
03:29 41.4 °F 39.6 °F 30.2 in Calm     93% 0 in 0 W/m2
03:34 41.4 °F 39.6 °F 30.2 in Calm     93% 0 in 0 W/m2
03:39 41.2 °F 39.4 °F 30.2 in Calm     93% 0 in 0 W/m2
03:44 41 °F 39.4 °F 30.2 in Calm     94% 0 in 0 W/m2
03:49 40.8 °F 39.2 °F 30.2 in Calm     94% 0 in 0 W/m2
03:55 40.8 °F 39.2 °F 30.2 in Calm     94% 0 in 0 W/m2
04:00 40.6 °F 39 °F 30.2 in Calm     94% 0 in 0 W/m2
04:05 40.6 °F 39 °F 30.2 in Calm     94% 0 in 0 W/m2
04:10 40.5 °F 38.8 °F 30.2 in Calm     94% 0 in 0 W/m2
04:15 40.6 °F 39 °F 30.2 in Calm     94% 0 in 0 W/m2
04:20 40.6 °F 39 °F 30.2 in Calm     94% 0 in 0 W/m2
04:25 40.6 °F 39 °F 30.2 in Calm     94% 0 in 0 W/m2
04:30 40.6 °F 39 °F 30.2 in Calm     94% 0 in 0 W/m2
04:35 40.8 °F 39.6 °F 30.2 in Calm     95% 0 in 0 W/m2
04:40 41 °F 39.7 °F 30.2 in Calm     95% 0 in 0 W/m2
04:45 41 °F 39.7 °F 30.2 in Calm     95% 0 in 0 W/m2
04:50 41.2 °F 39.9 °F 30.2 in Calm     95% 0 in 0 W/m2
04:55 41 °F 39.7 °F 30.2 in Calm     95% 0 in 0 W/m2
05:00 40.8 °F 39.6 °F 30.2 in Calm     95% 0 in 0 W/m2
05:05 40.8 °F 39.6 °F 30.2 in Calm     95% 0 in 0 W/m2
Juneau County Weather
Compliments of Weather Underground - 2 mb